sensor_id;sensor_type;location;lat;lon;timestamp;pressure;altitude;pressure_sealevel;temperature;humidity
42519;BME280;28147;47.520;18.920;2023-04-03T00:00:32;98307.28;;;9.27;49.92
42519;BME280;28147;47.520;18.920;2023-04-03T00:02:57;98319.69;;;8.55;51.29
42519;BME280;28147;47.520;18.920;2023-04-03T00:05:23;98308.03;;;8.74;51.88
42519;BME280;28147;47.520;18.920;2023-04-03T00:07:48;98319.66;;;8.91;51.33
42519;BME280;28147;47.520;18.920;2023-04-03T00:10:15;98315.22;;;9.15;50.92
42519;BME280;28147;47.520;18.920;2023-04-03T00:12:40;98320.22;;;9.23;50.23
42519;BME280;28147;47.520;18.920;2023-04-03T00:15:06;98314.03;;;9.41;49.98
42519;BME280;28147;47.520;18.920;2023-04-03T00:17:32;98308.03;;;9.46;49.79
42519;BME280;28147;47.520;18.920;2023-04-03T00:19:57;98316.63;;;9.71;48.94
42519;BME280;28147;47.520;18.920;2023-04-03T00:22:23;98315.69;;;9.66;48.46
42519;BME280;28147;47.520;18.920;2023-04-03T00:24:48;98319.03;;;9.73;48.01
42519;BME280;28147;47.520;18.920;2023-04-03T00:27:14;98316.38;;;9.73;48.48
42519;BME280;28147;47.520;18.920;2023-04-03T00:29:41;98323.34;;;9.74;48.65
42519;BME280;28147;47.520;18.920;2023-04-03T00:32:06;98328.75;;;9.67;48.45
42519;BME280;28147;47.520;18.920;2023-04-03T00:34:31;98334.69;;;9.81;47.96
42519;BME280;28147;47.520;18.920;2023-04-03T00:36:57;98330.09;;;9.58;48.99
42519;BME280;28147;47.520;18.920;2023-04-03T00:39:22;98334.16;;;9.61;48.73
42519;BME280;28147;47.520;18.920;2023-04-03T00:41:48;98342.06;;;9.79;48.52
42519;BME280;28147;47.520;18.920;2023-04-03T00:46:45;98331.38;;;9.44;48.99
42519;BME280;28147;47.520;18.920;2023-04-03T00:49:10;98335.34;;;9.77;48.54
42519;BME280;28147;47.520;18.920;2023-04-03T00:51:36;98340.44;;;9.78;48.27
42519;BME280;28147;47.520;18.920;2023-04-03T00:54:05;98345.59;;;9.49;49.42
42519;BME280;28147;47.520;18.920;2023-04-03T00:56:32;98341.75;;;9.45;48.71
42519;BME280;28147;47.520;18.920;2023-04-03T00:59:07;98348.63;;;9.23;48.77
42519;BME280;28147;47.520;18.920;2023-04-03T01:01:34;98342.94;;;9.19;48.80
42519;BME280;28147;47.520;18.920;2023-04-03T01:04:00;98347.75;;;9.41;48.44
42519;BME280;28147;47.520;18.920;2023-04-03T01:06:32;98344.75;;;9.37;47.97
42519;BME280;28147;47.520;18.920;2023-04-03T01:08:59;98341.00;;;9.68;47.71
42519;BME280;28147;47.520;18.920;2023-04-03T01:11:26;98342.50;;;9.76;48.03
42519;BME280;28147;47.520;18.920;2023-04-03T01:13:52;98348.78;;;9.82;47.20
42519;BME280;28147;47.520;18.920;2023-04-03T01:16:18;98342.34;;;9.47;48.35
42519;BME280;28147;47.520;18.920;2023-04-03T01:18:44;98334.78;;;9.21;48.39
42519;BME280;28147;47.520;18.920;2023-04-03T01:24:25;98333.53;;;9.35;48.52
42519;BME280;28147;47.520;18.920;2023-04-03T01:26:53;98316.97;;;9.10;48.31
42519;BME280;28147;47.520;18.920;2023-04-03T01:29:18;98319.47;;;9.05;48.86
42519;BME280;28147;47.520;18.920;2023-04-03T01:32:01;98324.31;;;9.08;48.65
42519;BME280;28147;47.520;18.920;2023-04-03T01:34:29;98321.47;;;9.09;48.91
42519;BME280;28147;47.520;18.920;2023-04-03T01:36:56;98327.72;;;9.26;48.49
42519;BME280;28147;47.520;18.920;2023-04-03T01:39:22;98326.66;;;9.16;48.15
42519;BME280;28147;47.520;18.920;2023-04-03T01:41:48;98326.25;;;9.00;48.57
42519;BME280;28147;47.520;18.920;2023-04-03T01:44:14;98323.03;;;8.98;48.65
42519;BME280;28147;47.520;18.920;2023-04-03T01:46:39;98314.59;;;9.01;48.74
42519;BME280;28147;47.520;18.920;2023-04-03T01:49:06;98323.34;;;8.90;48.61
42519;BME280;28147;47.520;18.920;2023-04-03T01:51:31;98339.56;;;9.12;48.60
42519;BME280;28147;47.520;18.920;2023-04-03T01:53:58;98322.63;;;8.83;48.90
42519;BME280;28147;47.520;18.920;2023-04-03T01:56:23;98333.91;;;9.09;48.19
42519;BME280;28147;47.520;18.920;2023-04-03T01:58:48;98333.81;;;9.15;48.18
42519;BME280;28147;47.520;18.920;2023-04-03T02:01:14;98332.78;;;9.16;48.13
42519;BME280;28147;47.520;18.920;2023-04-03T02:03:40;98342.56;;;8.86;49.02
42519;BME280;28147;47.520;18.920;2023-04-03T02:06:06;98341.00;;;8.96;48.71
42519;BME280;28147;47.520;18.920;2023-04-03T02:08:31;98336.19;;;9.05;48.20
42519;BME280;28147;47.520;18.920;2023-04-03T02:10:57;98343.59;;;9.03;48.01
42519;BME280;28147;47.520;18.920;2023-04-03T02:13:22;98343.56;;;8.73;48.60
42519;BME280;28147;47.520;18.920;2023-04-03T02:15:48;98347.31;;;8.65;48.51
42519;BME280;28147;47.520;18.920;2023-04-03T02:18:14;98351.09;;;8.76;48.17
42519;BME280;28147;47.520;18.920;2023-04-03T02:20:39;98341.66;;;8.62;48.55
42519;BME280;28147;47.520;18.920;2023-04-03T02:23:05;98351.22;;;8.81;48.28
42519;BME280;28147;47.520;18.920;2023-04-03T02:25:31;98344.13;;;8.75;47.88
42519;BME280;28147;47.520;18.920;2023-04-03T02:27:57;98350.06;;;9.07;47.50
42519;BME280;28147;47.520;18.920;2023-04-03T02:30:22;98351.22;;;8.81;48.06
42519;BME280;28147;47.520;18.920;2023-04-03T02:32:48;98357.31;;;8.82;48.03
42519;BME280;28147;47.520;18.920;2023-04-03T02:35:13;98357.19;;;8.76;48.72
42519;BME280;28147;47.520;18.920;2023-04-03T02:37:38;98345.78;;;8.76;48.41
42519;BME280;28147;47.520;18.920;2023-04-03T02:40:05;98341.94;;;8.72;48.20
42519;BME280;28147;47.520;18.920;2023-04-03T02:42:31;98339.03;;;8.37;48.53
42519;BME280;28147;47.520;18.920;2023-04-03T02:44:57;98351.59;;;8.66;48.34
42519;BME280;28147;47.520;18.920;2023-04-03T02:47:22;98350.66;;;8.79;47.62
42519;BME280;28147;47.520;18.920;2023-04-03T02:49:48;98355.59;;;8.75;48.32
42519;BME280;28147;47.520;18.920;2023-04-03T02:52:14;98351.66;;;8.78;47.39
42519;BME280;28147;47.520;18.920;2023-04-03T02:54:39;98353.59;;;8.52;48.20
42519;BME280;28147;47.520;18.920;2023-04-03T02:57:05;98364.50;;;8.63;47.79
42519;BME280;28147;47.520;18.920;2023-04-03T02:59:33;98357.06;;;8.71;47.58
42519;BME280;28147;47.520;18.920;2023-04-03T03:01:59;98362.31;;;8.90;47.14
42519;BME280;28147;47.520;18.920;2023-04-03T03:04:24;98356.53;;;8.81;47.92
42519;BME280;28147;47.520;18.920;2023-04-03T03:06:50;98355.53;;;8.64;48.46
42519;BME280;28147;47.520;18.920;2023-04-03T03:09:17;98361.09;;;8.74;48.37
42519;BME280;28147;47.520;18.920;2023-04-03T03:11:42;98354.53;;;8.76;48.36
42519;BME280;28147;47.520;18.920;2023-04-03T03:14:08;98358.69;;;8.72;48.51
42519;BME280;28147;47.520;18.920;2023-04-03T03:16:33;98355.97;;;8.61;47.87
42519;BME280;28147;47.520;18.920;2023-04-03T03:18:58;98359.19;;;8.63;48.03
42519;BME280;28147;47.520;18.920;2023-04-03T03:21:24;98356.53;;;8.63;47.45
42519;BME280;28147;47.520;18.920;2023-04-03T03:23:50;98348.44;;;8.58;48.48
42519;BME280;28147;47.520;18.920;2023-04-03T03:26:15;98356.31;;;8.64;48.33
42519;BME280;28147;47.520;18.920;2023-04-03T03:28:41;98367.06;;;8.88;47.52
42519;BME280;28147;47.520;18.920;2023-04-03T03:31:08;98354.03;;;8.49;48.23
42519;BME280;28147;47.520;18.920;2023-04-03T03:33:33;98356.09;;;8.66;47.76
42519;BME280;28147;47.520;18.920;2023-04-03T03:35:59;98363.53;;;8.75;48.05
42519;BME280;28147;47.520;18.920;2023-04-03T03:38:25;98367.88;;;8.70;47.93
42519;BME280;28147;47.520;18.920;2023-04-03T03:40:51;98358.31;;;8.50;48.22
42519;BME280;28147;47.520;18.920;2023-04-03T03:43:17;98361.13;;;8.37;48.93
42519;BME280;28147;47.520;18.920;2023-04-03T03:45:43;98364.94;;;8.41;48.43
42519;BME280;28147;47.520;18.920;2023-04-03T03:48:08;98360.25;;;8.37;48.92
42519;BME280;28147;47.520;18.920;2023-04-03T03:50:34;98364.16;;;8.34;48.64
42519;BME280;28147;47.520;18.920;2023-04-03T03:52:59;98359.88;;;8.33;48.80
42519;BME280;28147;47.520;18.920;2023-04-03T03:55:25;98364.00;;;8.29;49.14
42519;BME280;28147;47.520;18.920;2023-04-03T03:57:51;98348.09;;;8.29;49.19
42519;BME280;28147;47.520;18.920;2023-04-03T04:00:17;98359.69;;;8.35;49.03
42519;BME280;28147;47.520;18.920;2023-04-03T04:02:42;98351.75;;;8.10;49.44
42519;BME280;28147;47.520;18.920;2023-04-03T04:05:08;98334.19;;;7.90;49.49
42519;BME280;28147;47.520;18.920;2023-04-03T04:07:34;98353.06;;;8.00;49.53
42519;BME280;28147;47.520;18.920;2023-04-03T04:10:00;98351.59;;;8.04;50.25
42519;BME280;28147;47.520;18.920;2023-04-03T04:12:25;98348.81;;;7.99;50.22
42519;BME280;28147;47.520;18.920;2023-04-03T04:14:50;98344.59;;;7.67;50.66
42519;BME280;28147;47.520;18.920;2023-04-03T04:17:16;98333.47;;;7.76;50.74
42519;BME280;28147;47.520;18.920;2023-04-03T04:19:41;98350.78;;;7.79;50.87
42519;BME280;28147;47.520;18.920;2023-04-03T04:22:07;98356.97;;;7.73;50.78
42519;BME280;28147;47.520;18.920;2023-04-03T04:24:32;98352.91;;;7.70;50.73
42519;BME280;28147;47.520;18.920;2023-04-03T04:26:58;98352.00;;;7.58;51.13
42519;BME280;28147;47.520;18.920;2023-04-03T04:29:23;98353.38;;;7.61;51.92
42519;BME280;28147;47.520;18.920;2023-04-03T04:31:49;98352.06;;;7.45;51.74
42519;BME280;28147;47.520;18.920;2023-04-03T04:34:15;98356.53;;;7.51;51.92
42519;BME280;28147;47.520;18.920;2023-04-03T04:39:10;98366.50;;;7.17;52.59
42519;BME280;28147;47.520;18.920;2023-04-03T04:41:36;98369.81;;;7.06;52.75
42519;BME280;28147;47.520;18.920;2023-04-03T04:44:04;98364.63;;;7.24;52.53
42519;BME280;28147;47.520;18.920;2023-04-03T04:46:30;98354.91;;;7.12;52.93
42519;BME280;28147;47.520;18.920;2023-04-03T04:48:55;98365.81;;;7.35;52.37
42519;BME280;28147;47.520;18.920;2023-04-03T04:51:20;98367.56;;;7.41;52.42
42519;BME280;28147;47.520;18.920;2023-04-03T04:53:46;98369.34;;;7.16;53.11
42519;BME280;28147;47.520;18.920;2023-04-03T04:56:12;98368.94;;;7.19;53.11
42519;BME280;28147;47.520;18.920;2023-04-03T04:58:37;98360.56;;;7.53;52.53
42519;BME280;28147;47.520;18.920;2023-04-03T05:01:08;98376.41;;;7.60;51.98
42519;BME280;28147;47.520;18.920;2023-04-03T05:03:34;98353.56;;;7.66;52.04
42519;BME280;28147;47.520;18.920;2023-04-03T05:06:01;98369.94;;;7.56;52.53
42519;BME280;28147;47.520;18.920;2023-04-03T05:08:27;98378.47;;;7.58;52.27
42519;BME280;28147;47.520;18.920;2023-04-03T05:10:52;98373.88;;;7.72;51.64
42519;BME280;28147;47.520;18.920;2023-04-03T05:13:18;98375.69;;;7.78;51.85
42519;BME280;28147;47.520;18.920;2023-04-03T05:15:44;98377.84;;;7.63;52.37
42519;BME280;28147;47.520;18.920;2023-04-03T05:18:10;98389.63;;;7.67;51.52
42519;BME280;28147;47.520;18.920;2023-04-03T05:20:35;98386.34;;;7.40;52.58
42519;BME280;28147;47.520;18.920;2023-04-03T05:23:02;98388.09;;;7.52;52.22
42519;BME280;28147;47.520;18.920;2023-04-03T05:28:01;98401.34;;;8.52;49.84
42519;BME280;28147;47.520;18.920;2023-04-03T05:30:27;98398.56;;;8.84;49.38
42519;BME280;28147;47.520;18.920;2023-04-03T05:32:52;98392.78;;;8.50;49.76
42519;BME280;28147;47.520;18.920;2023-04-03T05:35:20;98389.88;;;8.34;49.80
42519;BME280;28147;47.520;18.920;2023-04-03T05:37:46;98396.69;;;8.48;49.18
42519;BME280;28147;47.520;18.920;2023-04-03T05:40:11;98382.50;;;8.61;49.07
42519;BME280;28147;47.520;18.920;2023-04-03T05:42:37;98396.31;;;8.99;48.55
42519;BME280;28147;47.520;18.920;2023-04-03T05:45:03;98386.28;;;9.01;47.38
42519;BME280;28147;47.520;18.920;2023-04-03T05:47:28;98396.22;;;9.55;48.33
42519;BME280;28147;47.520;18.920;2023-04-03T05:49:54;98400.06;;;9.70;46.32
42519;BME280;28147;47.520;18.920;2023-04-03T05:52:28;98406.25;;;10.18;45.52
42519;BME280;28147;47.520;18.920;2023-04-03T05:54:57;98401.44;;;10.38;45.40
42519;BME280;28147;47.520;18.920;2023-04-03T05:57:23;98403.47;;;10.01;45.70
42519;BME280;28147;47.520;18.920;2023-04-03T05:59:49;98412.53;;;10.47;45.11
42519;BME280;28147;47.520;18.920;2023-04-03T06:02:20;98405.94;;;10.38;44.71
42519;BME280;28147;47.520;18.920;2023-04-03T06:04:46;98406.41;;;10.58;44.82
42519;BME280;28147;47.520;18.920;2023-04-03T06:07:23;98412.41;;;10.65;44.14
42519;BME280;28147;47.520;18.920;2023-04-03T06:09:52;98411.72;;;10.23;45.27
42519;BME280;28147;47.520;18.920;2023-04-03T06:12:18;98417.50;;;10.67;44.32
42519;BME280;28147;47.520;18.920;2023-04-03T06:14:44;98410.09;;;10.69;43.71
42519;BME280;28147;47.520;18.920;2023-04-03T06:17:10;98400.16;;;10.41;44.19
42519;BME280;28147;47.520;18.920;2023-04-03T06:19:37;98409.38;;;11.26;43.33
42519;BME280;28147;47.520;18.920;2023-04-03T06:22:03;98407.00;;;11.01;42.72
42519;BME280;28147;47.520;18.920;2023-04-03T06:24:28;98394.53;;;11.30;42.55
42519;BME280;28147;47.520;18.920;2023-04-03T06:26:54;98402.44;;;11.13;42.71
42519;BME280;28147;47.520;18.920;2023-04-03T06:29:20;98422.13;;;11.52;42.22
42519;BME280;28147;47.520;18.920;2023-04-03T06:31:46;98413.69;;;11.43;42.27
42519;BME280;28147;47.520;18.920;2023-04-03T06:34:12;98427.41;;;11.64;42.32
42519;BME280;28147;47.520;18.920;2023-04-03T06:36:38;98420.13;;;11.59;42.06
42519;BME280;28147;47.520;18.920;2023-04-03T06:39:03;98417.28;;;12.11;42.14
42519;BME280;28147;47.520;18.920;2023-04-03T06:41:29;98406.97;;;11.69;42.28
42519;BME280;28147;47.520;18.920;2023-04-03T06:43:55;98425.56;;;11.81;42.05
42519;BME280;28147;47.520;18.920;2023-04-03T06:46:25;98418.03;;;11.90;41.35
42519;BME280;28147;47.520;18.920;2023-04-03T06:48:51;98406.56;;;11.78;41.60
42519;BME280;28147;47.520;18.920;2023-04-03T06:51:22;98426.34;;;12.44;40.76
42519;BME280;28147;47.520;18.920;2023-04-03T06:53:49;98431.84;;;12.37;40.80
42519;BME280;28147;47.520;18.920;2023-04-03T06:56:15;98428.59;;;12.52;40.98
42519;BME280;28147;47.520;18.920;2023-04-03T06:58:41;98434.94;;;12.85;39.58
42519;BME280;28147;47.520;18.920;2023-04-03T07:01:09;98442.63;;;12.81;39.83
42519;BME280;28147;47.520;18.920;2023-04-03T07:03:35;98440.06;;;12.91;39.28
42519;BME280;28147;47.520;18.920;2023-04-03T07:06:01;98428.31;;;12.71;39.50
42519;BME280;28147;47.520;18.920;2023-04-03T07:08:26;98440.34;;;12.51;39.54
42519;BME280;28147;47.520;18.920;2023-04-03T07:10:52;98442.69;;;12.14;39.39
42519;BME280;28147;47.520;18.920;2023-04-03T07:13:17;98444.53;;;11.68;40.66
42519;BME280;28147;47.520;18.920;2023-04-03T07:15:43;98448.97;;;11.91;40.72
42519;BME280;28147;47.520;18.920;2023-04-03T07:18:09;98445.91;;;12.50;40.04
42519;BME280;28147;47.520;18.920;2023-04-03T07:20:34;98460.44;;;12.76;39.95
42519;BME280;28147;47.520;18.920;2023-04-03T07:23:00;98462.88;;;12.77;38.80
42519;BME280;28147;47.520;18.920;2023-04-03T07:25:27;98465.16;;;11.73;40.48
42519;BME280;28147;47.520;18.920;2023-04-03T07:27:53;98468.59;;;11.16;41.22
42519;BME280;28147;47.520;18.920;2023-04-03T07:30:19;98454.63;;;11.37;41.55
42519;BME280;28147;47.520;18.920;2023-04-03T07:32:45;98470.53;;;11.20;41.33
42519;BME280;28147;47.520;18.920;2023-04-03T07:35:11;98470.34;;;11.22;42.08
42519;BME280;28147;47.520;18.920;2023-04-03T07:37:37;98477.66;;;11.03;42.16
42519;BME280;28147;47.520;18.920;2023-04-03T07:40:02;98472.72;;;11.35;42.53
42519;BME280;28147;47.520;18.920;2023-04-03T07:42:29;98471.34;;;11.21;42.42
42519;BME280;28147;47.520;18.920;2023-04-03T07:44:55;98476.72;;;11.50;42.44
42519;BME280;28147;47.520;18.920;2023-04-03T07:47:21;98483.50;;;11.69;42.76
42519;BME280;28147;47.520;18.920;2023-04-03T07:49:47;98481.94;;;11.85;41.51
42519;BME280;28147;47.520;18.920;2023-04-03T07:52:13;98476.69;;;11.61;41.59
42519;BME280;28147;47.520;18.920;2023-04-03T07:54:41;98473.56;;;11.81;42.54
42519;BME280;28147;47.520;18.920;2023-04-03T07:57:06;98484.63;;;11.73;41.82
42519;BME280;28147;47.520;18.920;2023-04-03T07:59:32;98476.81;;;11.55;41.49
42519;BME280;28147;47.520;18.920;2023-04-03T08:01:57;98480.06;;;11.57;41.22
42519;BME280;28147;47.520;18.920;2023-04-03T08:04:23;98476.84;;;11.14;40.82
42519;BME280;28147;47.520;18.920;2023-04-03T08:06:48;98483.72;;;11.39;41.96
42519;BME280;28147;47.520;18.920;2023-04-03T08:09:15;98476.47;;;11.51;40.95
42519;BME280;28147;47.520;18.920;2023-04-03T08:11:41;98477.31;;;11.40;41.65
42519;BME280;28147;47.520;18.920;2023-04-03T08:14:06;98488.66;;;11.47;40.73
42519;BME280;28147;47.520;18.920;2023-04-03T08:16:32;98479.59;;;11.60;41.08
42519;BME280;28147;47.520;18.920;2023-04-03T08:18:58;98490.44;;;11.70;40.47
42519;BME280;28147;47.520;18.920;2023-04-03T08:21:23;98487.97;;;11.52;40.64
42519;BME280;28147;47.520;18.920;2023-04-03T08:23:49;98489.72;;;11.86;39.90
42519;BME280;28147;47.520;18.920;2023-04-03T08:26:20;98495.13;;;11.91;40.36
42519;BME280;28147;47.520;18.920;2023-04-03T08:28:47;98488.94;;;12.03;39.90
42519;BME280;28147;47.520;18.920;2023-04-03T08:31:18;98494.81;;;11.76;39.41
42519;BME280;28147;47.520;18.920;2023-04-03T08:33:44;98485.84;;;11.94;39.16
42519;BME280;28147;47.520;18.920;2023-04-03T08:36:21;98497.00;;;12.08;39.27
42519;BME280;28147;47.520;18.920;2023-04-03T08:38:47;98491.31;;;12.33;39.00
42519;BME280;28147;47.520;18.920;2023-04-03T08:41:37;98497.81;;;12.08;38.82
42519;BME280;28147;47.520;18.920;2023-04-03T08:44:10;98491.44;;;12.26;38.65
42519;BME280;28147;47.520;18.920;2023-04-03T08:52:11;98494.34;;;13.14;37.82
42519;BME280;28147;47.520;18.920;2023-04-03T08:54:58;98496.22;;;14.06;36.60
42519;BME280;28147;47.520;18.920;2023-04-03T08:57:46;98503.22;;;14.40;35.04
42519;BME280;28147;47.520;18.920;2023-04-03T09:00:18;98498.34;;;13.77;35.16
42519;BME280;28147;47.520;18.920;2023-04-03T09:02:47;98507.00;;;13.02;35.16
42519;BME280;28147;47.520;18.920;2023-04-03T09:05:24;98509.69;;;13.41;36.36
42519;BME280;28147;47.520;18.920;2023-04-03T09:08:01;98500.19;;;13.50;35.45
42519;BME280;28147;47.520;18.920;2023-04-03T09:10:33;98511.53;;;13.62;36.30
42519;BME280;28147;47.520;18.920;2023-04-03T09:15:29;98503.22;;;13.58;33.98
42519;BME280;28147;47.520;18.920;2023-04-03T09:22:56;98490.09;;;13.57;34.30
42519;BME280;28147;47.520;18.920;2023-04-03T09:25:48;98505.41;;;14.80;34.35
42519;BME280;28147;47.520;18.920;2023-04-03T09:28:16;98495.38;;;14.65;34.96
42519;BME280;28147;47.520;18.920;2023-04-03T09:30:41;98492.19;;;14.04;33.20
42519;BME280;28147;47.520;18.920;2023-04-03T09:33:07;98504.31;;;14.17;34.13
42519;BME280;28147;47.520;18.920;2023-04-03T09:35:36;98496.88;;;14.19;34.35
42519;BME280;28147;47.520;18.920;2023-04-03T09:40:38;98492.94;;;14.31;34.70
42519;BME280;28147;47.520;18.920;2023-04-03T09:43:31;98493.53;;;14.06;34.27
42519;BME280;28147;47.520;18.920;2023-04-03T09:46:26;98491.94;;;13.12;35.71
42519;BME280;28147;47.520;18.920;2023-04-03T09:49:04;98500.63;;;13.42;35.47
42519;BME280;28147;47.520;18.920;2023-04-03T09:51:31;98502.59;;;13.29;34.78
42519;BME280;28147;47.520;18.920;2023-04-03T09:53:57;98495.53;;;13.01;36.11
42519;BME280;28147;47.520;18.920;2023-04-03T09:56:30;98488.41;;;13.29;35.81
42519;BME280;28147;47.520;18.920;2023-04-03T10:01:33;98496.13;;;12.86;35.35
42519;BME280;28147;47.520;18.920;2023-04-03T10:04:07;98501.00;;;12.56;35.13
42519;BME280;28147;47.520;18.920;2023-04-03T10:06:45;98496.31;;;12.63;35.84
42519;BME280;28147;47.520;18.920;2023-04-03T10:09:22;98494.25;;;12.87;35.61
42519;BME280;28147;47.520;18.920;2023-04-03T10:14:28;98495.25;;;13.03;36.08
42519;BME280;28147;47.520;18.920;2023-04-03T10:20:10;98494.69;;;12.62;36.88
42519;BME280;28147;47.520;18.920;2023-04-03T10:28:20;98499.06;;;12.34;36.64
42519;BME280;28147;47.520;18.920;2023-04-03T10:31:20;98502.28;;;12.70;35.71
42519;BME280;28147;47.520;18.920;2023-04-03T10:34:02;98506.03;;;12.35;37.02
42519;BME280;28147;47.520;18.920;2023-04-03T10:36:43;98495.59;;;12.51;36.67
42519;BME280;28147;47.520;18.920;2023-04-03T10:39:13;98494.00;;;11.87;37.77
42519;BME280;28147;47.520;18.920;2023-04-03T10:41:57;98496.53;;;12.11;38.07
42519;BME280;28147;47.520;18.920;2023-04-03T10:44:49;98497.44;;;12.16;37.51
42519;BME280;28147;47.520;18.920;2023-04-03T10:57:54;98480.28;;;12.46;36.79
42519;BME280;28147;47.520;18.920;2023-04-03T11:00:28;98488.00;;;12.43;37.17
42519;BME280;28147;47.520;18.920;2023-04-03T11:03:00;98475.13;;;12.39;36.56
42519;BME280;28147;47.520;18.920;2023-04-03T11:05:45;98487.09;;;12.37;36.49
42519;BME280;28147;47.520;18.920;2023-04-03T11:08:38;98490.47;;;11.99;36.99
42519;BME280;28147;47.520;18.920;2023-04-03T11:11:21;98484.59;;;12.13;36.83
42519;BME280;28147;47.520;18.920;2023-04-03T11:13:55;98489.72;;;12.03;37.20
42519;BME280;28147;47.520;18.920;2023-04-03T11:16:26;98486.34;;;11.79;37.28
42519;BME280;28147;47.520;18.920;2023-04-03T11:21:40;98485.69;;;12.01;36.50
42519;BME280;28147;47.520;18.920;2023-04-03T11:24:16;98478.22;;;12.31;36.86
42519;BME280;28147;47.520;18.920;2023-04-03T11:26:42;98476.31;;;12.15;36.46
42519;BME280;28147;47.520;18.920;2023-04-03T11:29:14;98470.97;;;12.15;36.79
42519;BME280;28147;47.520;18.920;2023-04-03T11:32:36;98475.41;;;11.64;36.64
42519;BME280;28147;47.520;18.920;2023-04-03T11:34:53;98465.81;;;12.98;54.47
42519;BME280;28147;47.520;18.920;2023-04-03T11:37:34;98473.53;;;14.14;50.60
42519;BME280;28147;47.520;18.920;2023-04-03T11:40:34;98463.06;;;13.31;36.00
42519;BME280;28147;47.520;18.920;2023-04-03T11:43:27;98464.34;;;13.29;36.21
42519;BME280;28147;47.520;18.920;2023-04-03T11:45:58;98465.31;;;13.01;35.88
42519;BME280;28147;47.520;18.920;2023-04-03T11:50:57;98461.22;;;12.76;35.30
42519;BME280;28147;47.520;18.920;2023-04-03T11:53:35;98462.25;;;12.53;36.10
42519;BME280;28147;47.520;18.920;2023-04-03T11:56:31;98465.56;;;12.60;36.23
42519;BME280;28147;47.520;18.920;2023-04-03T12:01:56;98463.56;;;12.17;35.96
42519;BME280;28147;47.520;18.920;2023-04-03T12:04:24;98468.56;;;12.30;37.01
42519;BME280;28147;47.520;18.920;2023-04-03T12:06:58;98467.22;;;12.28;36.02
42519;BME280;28147;47.520;18.920;2023-04-03T12:09:35;98473.78;;;11.91;35.92
42519;BME280;28147;47.520;18.920;2023-04-03T12:12:57;98474.56;;;12.21;35.36
42519;BME280;28147;47.520;18.920;2023-04-03T12:15:47;98471.59;;;11.88;35.12
42519;BME280;28147;47.520;18.920;2023-04-03T12:20:58;98468.50;;;11.80;35.24
42519;BME280;28147;47.520;18.920;2023-04-03T12:23:32;98469.03;;;11.93;35.75
42519;BME280;28147;47.520;18.920;2023-04-03T12:26:24;98467.25;;;11.99;35.53
42519;BME280;28147;47.520;18.920;2023-04-03T12:28:50;98470.25;;;11.74;36.26
42519;BME280;28147;47.520;18.920;2023-04-03T12:31:22;98464.91;;;11.74;36.88
42519;BME280;28147;47.520;18.920;2023-04-03T12:37:03;98455.44;;;11.95;35.87
42519;BME280;28147;47.520;18.920;2023-04-03T12:40:06;98452.97;;;12.39;37.00
42519;BME280;28147;47.520;18.920;2023-04-03T12:45:44;98447.97;;;12.64;35.78
42519;BME280;28147;47.520;18.920;2023-04-03T12:48:17;98436.66;;;12.74;35.10
42519;BME280;28147;47.520;18.920;2023-04-03T12:50:45;98443.72;;;12.63;34.90
42519;BME280;28147;47.520;18.920;2023-04-03T12:53:33;98445.09;;;12.49;35.21
42519;BME280;28147;47.520;18.920;2023-04-03T12:56:38;98435.06;;;12.56;34.14
42519;BME280;28147;47.520;18.920;2023-04-03T13:01:39;98435.19;;;13.05;34.60
42519;BME280;28147;47.520;18.920;2023-04-03T13:04:05;98443.50;;;12.31;34.77
42519;BME280;28147;47.520;18.920;2023-04-03T13:06:37;98444.06;;;12.33;33.91
42519;BME280;28147;47.520;18.920;2023-04-03T13:09:03;98428.78;;;11.95;34.56
42519;BME280;28147;47.520;18.920;2023-04-03T13:11:37;98430.28;;;12.41;34.98
42519;BME280;28147;47.520;18.920;2023-04-03T13:14:12;98423.44;;;12.29;35.89
42519;BME280;28147;47.520;18.920;2023-04-03T13:16:39;98418.38;;;12.49;34.96
42519;BME280;28147;47.520;18.920;2023-04-03T13:19:14;98410.06;;;12.46;35.37
42519;BME280;28147;47.520;18.920;2023-04-03T13:21:40;98416.03;;;12.53;35.76
42519;BME280;28147;47.520;18.920;2023-04-03T13:24:06;98417.56;;;12.65;35.65
42519;BME280;28147;47.520;18.920;2023-04-03T13:26:34;98411.84;;;12.79;36.38
42519;BME280;28147;47.520;18.920;2023-04-03T13:29:03;98406.91;;;12.49;36.50
42519;BME280;28147;47.520;18.920;2023-04-03T13:31:31;98402.72;;;12.36;36.09
42519;BME280;28147;47.520;18.920;2023-04-03T13:34:12;98412.19;;;12.44;36.58
42519;BME280;28147;47.520;18.920;2023-04-03T13:36:40;98406.38;;;12.30;35.84
42519;BME280;28147;47.520;18.920;2023-04-03T13:39:23;98407.41;;;12.46;35.15
42519;BME280;28147;47.520;18.920;2023-04-03T13:41:51;98405.44;;;12.58;35.91
42519;BME280;28147;47.520;18.920;2023-04-03T13:44:30;98412.34;;;12.76;35.59
42519;BME280;28147;47.520;18.920;2023-04-03T13:47:14;98408.66;;;12.60;34.48
42519;BME280;28147;47.520;18.920;2023-04-03T13:50:19;98411.59;;;12.80;34.88
42519;BME280;28147;47.520;18.920;2023-04-03T13:52:49;98399.03;;;11.86;34.29
42519;BME280;28147;47.520;18.920;2023-04-03T14:03:03;98399.09;;;12.64;34.94
42519;BME280;28147;47.520;18.920;2023-04-03T14:05:36;98392.66;;;12.60;35.42
42519;BME280;28147;47.520;18.920;2023-04-03T14:08:02;98397.81;;;12.66;35.52
42519;BME280;28147;47.520;18.920;2023-04-03T14:10:27;98386.22;;;12.78;35.72
42519;BME280;28147;47.520;18.920;2023-04-03T14:12:53;98386.25;;;12.83;35.85
42519;BME280;28147;47.520;18.920;2023-04-03T14:15:26;98387.47;;;12.53;34.60
42519;BME280;28147;47.520;18.920;2023-04-03T14:17:52;98386.25;;;12.61;35.40
42519;BME280;28147;47.520;18.920;2023-04-03T14:20:20;98387.44;;;12.70;35.85
42519;BME280;28147;47.520;18.920;2023-04-03T14:22:47;98391.22;;;12.52;34.26
42519;BME280;28147;47.520;18.920;2023-04-03T14:25:15;98391.78;;;12.76;36.00